Time,TemperatureF,DewpointF,PressureIn,WindDirection,WindDirectionDegrees,WindSpeedMPH,WindSpeedGustMPH,Humidity,HourlyPrecipIn,Conditions,Clouds,dailyrainin,SoftwareType,DateUTC
2013-06-11 00:13:00,68.0,67.0,29.97,SW,222,2.0,4.0,97,0.00,,,0.00,weatherlink.com 1.10,2013-06-11 04:13:00,
2013-06-11 00:28:00,68.0,67.0,29.97,SW,229,4.0,6.0,97,0.00,,,0.00,weatherlink.com 1.10,2013-06-11 04:28:00,
2013-06-11 00:44:00,68.0,67.0,29.96,SW,221,4.0,5.0,97,0.00,,,0.00,weatherlink.com 1.10,2013-06-11 04:44:00,
2013-06-11 00:58:00,68.2,67.0,29.95,SSW,195,5.0,10.0,96,0.00,,,0.00,weatherlink.com 1.10,2013-06-11 04:58:00,
2013-06-11 01:13:00,68.3,67.0,29.95,SW,228,5.0,9.0,96,0.00,,,0.00,weatherlink.com 1.10,2013-06-11 05:13:00,
2013-06-11 01:28:00,68.3,67.0,29.96,SW,215,7.0,12.0,96,0.00,,,0.00,weatherlink.com 1.10,2013-06-11 05:28:00,
2013-06-11 01:43:00,68.4,67.0,29.95,SW,222,5.0,9.0,96,0.00,,,0.00,weatherlink.com 1.10,2013-06-11 05:43:00,
2013-06-11 01:58:00,68.6,67.0,29.95,WSW,256,6.0,9.0,95,0.00,,,0.00,weatherlink.com 1.10,2013-06-11 05:58:00,
2013-06-11 02:13:00,68.9,68.0,29.96,WSW,248,5.0,11.0,95,0.00,,,0.00,weatherlink.com 1.10,2013-06-11 06:13:00,
2013-06-11 02:28:00,69.1,68.0,29.96,West,259,4.0,10.0,95,0.00,,,0.00,weatherlink.com 1.10,2013-06-11 06:28:00,
2013-06-11 02:43:00,69.3,68.0,29.97,West,264,6.0,10.0,95,0.00,,,0.00,weatherlink.com 1.10,2013-06-11 06:43:00,
2013-06-11 02:58:00,69.4,68.0,29.97,West,274,3.0,6.0,95,0.00,,,0.00,weatherlink.com 1.10,2013-06-11 06:58:00,
2013-06-11 03:13:00,69.4,68.0,29.96,WSW,240,2.0,3.0,95,0.00,,,0.00,weatherlink.com 1.10,2013-06-11 07:13:00,
2013-06-11 03:28:00,69.4,68.0,29.96,WSW,240,2.0,-999.0,95,-99.99,,,0.00,weatherlink.com 1.10,2013-06-11 07:28:00,
2013-06-11 03:43:00,69.4,68.0,29.95,SW,228,6.0,6.0,95,0.00,,,0.00,weatherlink.com 1.10,2013-06-11 07:43:00,
2013-06-11 03:58:00,69.6,68.0,29.95,SW,226,4.0,5.0,95,0.00,,,0.00,weatherlink.com 1.10,2013-06-11 07:58:00,
2013-06-11 04:13:00,69.7,68.0,29.95,SSW,202,2.0,5.0,95,0.00,,,0.00,weatherlink.com 1.10,2013-06-11 08:13:00,
2013-06-11 04:28:00,69.7,68.0,29.95,SW,222,1.0,2.0,95,0.00,,,0.00,weatherlink.com 1.10,2013-06-11 08:28:00,
2013-06-11 04:43:00,69.7,69.0,29.95,SW,221,2.0,3.0,96,0.00,,,0.00,weatherlink.com 1.10,2013-06-11 08:43:00,
2013-06-11 04:58:00,69.7,69.0,29.95,SW,218,5.0,7.0,96,0.00,,,0.00,weatherlink.com 1.10,2013-06-11 08:58:00,
2013-06-11 05:13:00,69.7,69.0,29.94,SSW,211,3.0,7.0,96,0.00,,,0.00,weatherlink.com 1.10,2013-06-11 09:13:00,
2013-06-11 05:28:00,69.6,69.0,29.95,WSW,239,2.0,5.0,96,0.00,,,0.00,weatherlink.com 1.10,2013-06-11 09:28:00,
2013-06-11 05:43:00,69.5,68.0,29.95,SW,214,3.0,6.0,96,0.00,,,0.00,weatherlink.com 1.10,2013-06-11 09:43:00,
2013-06-11 05:58:00,69.4,69.0,29.95,SSW,212,2.0,4.0,97,0.00,,,0.00,weatherlink.com 1.10,2013-06-11 09:58:00,
2013-06-11 06:13:00,69.2,68.0,29.95,SW,221,4.0,4.0,97,0.00,,,0.00,weatherlink.com 1.10,2013-06-11 10:13:00,
2013-06-11 06:28:00,69.2,68.0,29.95,SW,219,3.0,5.0,97,0.00,,,0.00,weatherlink.com 1.10,2013-06-11 10:28:00,
2013-06-11 06:44:00,69.6,69.0,29.96,SSW,212,3.0,7.0,97,0.00,,,0.00,weatherlink.com 1.10,2013-06-11 10:44:00,
2013-06-11 06:58:00,70.0,69.0,29.96,SW,219,5.0,8.0,96,0.00,,,0.00,weatherlink.com 1.10,2013-06-11 10:58:00,
2013-06-11 07:13:00,70.4,69.0,29.97,SW,236,4.0,8.0,96,0.00,,,0.00,weatherlink.com 1.10,2013-06-11 11:13:00,
2013-06-11 07:28:00,71.0,70.0,29.97,WSW,240,4.0,9.0,95,0.00,,,0.00,weatherlink.com 1.10,2013-06-11 11:28:00,
2013-06-11 07:43:00,71.8,70.0,29.97,SW,231,5.0,11.0,94,0.00,,,0.00,weatherlink.com 1.10,2013-06-11 11:43:00,
2013-06-11 07:58:00,72.4,70.0,29.98,SW,218,6.0,11.0,93,0.00,,,0.00,weatherlink.com 1.10,2013-06-11 11:58:00,
2013-06-11 08:13:00,73.0,70.0,29.98,WSW,252,5.0,11.0,91,0.00,,,0.00,weatherlink.com 1.10,2013-06-11 12:13:00,
2013-06-11 08:28:00,73.9,71.0,29.99,SW,236,10.0,10.0,90,0.00,,,0.00,weatherlink.com 1.10,2013-06-11 12:28:00,
2013-06-11 08:43:00,74.4,70.0,29.99,WSW,245,5.0,11.0,87,0.00,,,0.00,weatherlink.com 1.10,2013-06-11 12:43:00,
2013-06-11 08:58:00,74.9,70.0,30.00,WSW,238,5.0,9.0,84,0.00,,,0.00,weatherlink.com 1.10,2013-06-11 12:58:00,
2013-06-11 09:14:00,75.6,71.0,29.99,WSW,247,10.0,11.0,84,0.00,,,0.00,weatherlink.com 1.10,2013-06-11 13:14:00,
2013-06-11 09:29:00,76.3,70.0,29.99,WSW,248,7.0,10.0,82,0.00,,,0.00,weatherlink.com 1.10,2013-06-11 13:29:00,
2013-06-11 09:44:00,77.2,70.0,29.99,SW,236,6.0,8.0,78,0.00,,,0.00,weatherlink.com 1.10,2013-06-11 13:44:00,
2013-06-11 09:59:00,78.1,70.0,29.99,WSW,238,9.0,10.0,76,0.00,,,0.00,weatherlink.com 1.10,2013-06-11 13:59:00,
2013-06-11 10:14:00,78.7,70.0,29.98,West,263,7.0,8.0,74,0.00,,,0.00,weatherlink.com 1.10,2013-06-11 14:14:00,
2013-06-11 10:29:00,79.1,65.0,29.99,West,280,5.0,14.0,62,0.00,,,0.00,weatherlink.com 1.10,2013-06-11 14:29:00,
2013-06-11 10:44:00,79.5,63.0,29.99,West,267,12.0,20.0,58,0.00,,,0.00,weatherlink.com 1.10,2013-06-11 14:44:00,
2013-06-11 10:59:00,79.6,63.0,29.99,WNW,287,12.0,17.0,58,0.00,,,0.00,weatherlink.com 1.10,2013-06-11 14:59:00,
2013-06-11 11:14:00,79.7,64.0,30.00,WNW,287,10.0,15.0,59,0.00,,,0.00,weatherlink.com 1.10,2013-06-11 15:14:00,
2013-06-11 11:29:00,79.7,64.0,30.00,WSW,253,10.0,17.0,59,0.00,,,0.00,weatherlink.com 1.10,2013-06-11 15:29:00,
2013-06-11 11:44:00,80.0,64.0,30.00,WNW,288,10.0,16.0,58,0.00,,,0.00,weatherlink.com 1.10,2013-06-11 15:44:00,
2013-06-11 11:59:00,80.0,63.0,30.00,WNW,282,8.0,13.0,57,0.00,,,0.00,weatherlink.com 1.10,2013-06-11 15:59:00,
2013-06-11 12:14:00,81.2,63.0,30.00,WNW,284,12.0,15.0,55,0.00,,,0.00,weatherlink.com 1.10,2013-06-11 16:14:00,
2013-06-11 12:29:00,81.6,63.0,29.99,WSW,250,10.0,19.0,53,0.00,,,0.00,weatherlink.com 1.10,2013-06-11 16:29:00,
2013-06-11 12:44:00,82.2,62.0,29.98,NW,312,3.0,13.0,51,0.00,,,0.00,weatherlink.com 1.10,2013-06-11 16:44:00,
2013-06-11 12:59:00,82.0,63.0,29.98,SW,228,6.0,11.0,52,0.00,,,0.00,weatherlink.com 1.10,2013-06-11 16:59:00,
2013-06-11 13:14:00,82.3,62.0,29.98,WNW,296,3.0,11.0,51,0.00,,,0.00,weatherlink.com 1.10,2013-06-11 17:14:00,
2013-06-11 13:29:00,82.6,63.0,29.98,SW,231,1.0,11.0,51,0.00,,,0.00,weatherlink.com 1.10,2013-06-11 17:29:00,
2013-06-11 13:44:00,83.4,63.0,29.97,WNW,300,11.0,11.0,51,0.00,,,0.00,weatherlink.com 1.10,2013-06-11 17:44:00,
2013-06-11 14:00:00,83.4,62.0,29.97,WNW,300,4.0,11.0,49,0.00,,,0.00,weatherlink.com 1.10,2013-06-11 18:00:00,
2013-06-11 14:14:00,84.0,64.0,29.97,West,264,9.0,10.0,52,0.00,,,0.00,weatherlink.com 1.10,2013-06-11 18:14:00,
2013-06-11 14:29:00,84.0,63.0,29.96,West,262,12.0,13.0,49,0.00,,,0.00,weatherlink.com 1.10,2013-06-11 18:29:00,
2013-06-11 14:59:00,84.4,64.0,29.97,WNW,298,1.0,8.0,50,0.00,,,0.00,weatherlink.com 1.10,2013-06-11 18:59:00,
2013-06-11 15:14:00,84.7,62.0,29.96,WSW,250,4.0,8.0,47,0.00,,,0.00,weatherlink.com 1.10,2013-06-11 19:14:00,
2013-06-11 15:29:00,84.8,62.0,29.96,West,273,1.0,10.0,46,0.00,,,0.00,weatherlink.com 1.10,2013-06-11 19:29:00,
2013-06-11 15:44:00,85.1,63.0,29.96,NW,305,3.0,9.0,48,0.00,,,0.00,weatherlink.com 1.10,2013-06-11 19:44:00,
2013-06-11 15:59:00,85.6,64.0,29.96,NW,307,2.0,9.0,48,0.00,,,0.00,weatherlink.com 1.10,2013-06-11 19:59:00,
2013-06-11 16:14:00,86.0,63.0,29.96,NNW,328,5.0,11.0,46,0.00,,,0.00,weatherlink.com 1.10,2013-06-11 20:14:00,
2013-06-11 16:29:00,86.0,63.0,29.95,NE,39,1.0,7.0,47,0.00,,,0.00,weatherlink.com 1.10,2013-06-11 20:29:00,
2013-06-11 16:44:00,86.0,64.0,29.95,NNW,338,3.0,9.0,48,0.00,,,0.00,weatherlink.com 1.10,2013-06-11 20:44:00,
2013-06-11 16:59:00,86.3,66.0,29.95,WNW,288,4.0,9.0,50,0.00,,,0.00,weatherlink.com 1.10,2013-06-11 20:59:00,
2013-06-11 17:14:00,86.6,64.0,29.94,WNW,283,7.0,7.0,47,0.00,,,0.00,weatherlink.com 1.10,2013-06-11 21:14:00,
2013-06-11 17:29:00,86.3,64.0,29.95,NNE,32,2.0,8.0,47,0.00,,,0.00,weatherlink.com 1.10,2013-06-11 21:29:00,
2013-06-11 17:44:00,86.5,65.0,29.94,NNE,26,2.0,7.0,48,0.00,,,0.00,weatherlink.com 1.10,2013-06-11 21:44:00,
2013-06-11 17:59:00,86.1,64.0,29.93,NE,37,4.0,6.0,47,0.00,,,0.00,weatherlink.com 1.10,2013-06-11 21:59:00,
2013-06-11 18:14:00,86.4,65.0,29.93,NW,319,2.0,6.0,49,0.00,,,0.00,weatherlink.com 1.10,2013-06-11 22:14:00,
2013-06-11 18:30:00,86.8,64.0,29.93,WNW,303,1.0,3.0,46,0.00,,,0.00,weatherlink.com 1.10,2013-06-11 22:30:00,
2013-06-11 18:45:00,87.4,64.0,29.94,NNE,32,1.0,3.0,45,0.00,,,0.00,weatherlink.com 1.10,2013-06-11 22:45:00,
2013-06-11 19:15:00,87.0,66.0,29.94,NW,306,1.0,3.0,50,0.00,,,0.00,weatherlink.com 1.10,2013-06-11 23:15:00,
2013-06-11 19:30:00,86.1,65.0,29.95,NW,325,2.0,3.0,50,0.00,,,0.00,weatherlink.com 1.10,2013-06-11 23:30:00,
2013-06-11 19:45:00,86.5,66.0,29.95,NW,312,0.0,2.0,50,0.00,,,0.00,weatherlink.com 1.10,2013-06-11 23:45:00,
2013-06-11 20:01:00,85.9,68.0,29.95,NW,308,1.0,2.0,55,0.00,,,0.00,weatherlink.com 1.10,2013-06-12 00:01:00,
2013-06-11 20:15:00,85.3,67.0,29.94,NW,309,0.0,0.0,55,0.00,,,0.00,weatherlink.com 1.10,2013-06-12 00:15:00,
2013-06-11 20:30:00,83.2,70.0,29.94,NW,309,0.0,0.0,64,0.00,,,0.00,weatherlink.com 1.10,2013-06-12 00:30:00,
2013-06-11 20:45:00,80.0,67.0,29.94,NW,309,0.0,0.0,65,0.00,,,0.00,weatherlink.com 1.10,2013-06-12 00:45:00,
2013-06-11 21:00:00,78.1,68.0,29.94,NW,309,0.0,0.0,71,0.00,,,0.00,weatherlink.com 1.10,2013-06-12 01:00:00,
2013-06-11 21:15:00,75.8,69.0,29.95,NW,309,0.0,0.0,78,0.00,,,0.00,weatherlink.com 1.10,2013-06-12 01:15:00,
2013-06-11 21:30:00,74.7,68.0,29.95,NW,309,0.0,0.0,80,0.00,,,0.00,weatherlink.com 1.10,2013-06-12 01:30:00,
2013-06-11 21:45:00,73.6,67.0,29.96,NW,306,0.0,0.0,80,0.00,,,0.00,weatherlink.com 1.10,2013-06-12 01:45:00,
2013-06-11 22:00:00,73.1,67.0,29.97,NW,307,0.0,0.0,81,0.00,,,0.00,weatherlink.com 1.10,2013-06-12 02:00:00,
2013-06-11 22:15:00,72.1,68.0,29.98,West,274,1.0,2.0,87,0.00,,,0.00,weatherlink.com 1.10,2013-06-12 02:15:00,
2013-06-11 22:30:00,71.3,68.0,29.98,SW,226,0.0,3.0,89,0.00,,,0.00,weatherlink.com 1.10,2013-06-12 02:30:00,
2013-06-11 22:45:00,71.1,68.0,29.99,WSW,256,0.0,0.0,90,0.00,,,0.00,weatherlink.com 1.10,2013-06-12 02:45:00,
2013-06-11 23:00:00,70.6,68.0,29.99,WSW,256,0.0,0.0,90,0.00,,,0.00,weatherlink.com 1.10,2013-06-12 03:00:00,
2013-06-11 23:15:00,70.2,68.0,29.99,WSW,256,0.0,0.0,93,0.00,,,0.00,weatherlink.com 1.10,2013-06-12 03:15:00,
2013-06-11 23:30:00,70.2,68.0,29.99,West,272,0.0,0.0,92,0.00,,,0.00,weatherlink.com 1.10,2013-06-12 03:30:00,
2013-06-11 23:45:00,69.5,67.0,29.99,West,273,0.0,0.0,92,0.00,,,0.00,weatherlink.com 1.10,2013-06-12 03:45:00,